Time;durP1;ratioP1;P1;durP2;ratioP2;P2;SDS_P1;SDS_P2;PMS_P1;PMS_P2;Temp;Humidity;BMP_temperature;BMP_pressure;BME280_temperature;BME280_humidity;BME280_pressure;Samples;Min_cycle;Max_cycle;Signal;HPM_P1;HPM_P2
2022/05/14 00:00:17;;;;;;;10.80;4.20;;;;;;;;;;4977417;28;20081;-82
2022/05/14 00:02:43;;;;;;;11.25;4.10;;;;;;;;;;4978062;28;20049;-82
2022/05/14 00:05:09;;;;;;;11.52;4.25;;;;;;;;;;4977771;28;20132;-82
2022/05/14 00:07:35;;;;;;;11.38;4.05;;;;;;;;;;4994178;28;20097;-82
2022/05/14 00:10:02;;;;;;;12.10;4.55;;;;;;;;;;4995314;28;20042;-82
2022/05/14 00:15:12;;;;;;;11.98;4.15;;;;;;;;;;4995313;28;20043;-83
2022/05/14 00:17:38;;;;;;;15.27;3.97;;;;;;;;;;4977634;28;20121;-82
2022/05/14 00:20:04;;;;;;;13.20;4.28;;;;;;;;;;4977675;28;20510;-82
2022/05/14 00:22:31;;;;;;;16.63;4.63;;;;;;;;;;4977617;28;20053;-82
2022/05/14 00:24:57;;;;;;;14.13;4.10;;;;;;;;;;4993570;28;20077;-82
2022/05/14 00:27:23;;;;;;;14.05;4.22;;;;;;;;;;4977640;28;20050;-82
2022/05/14 00:29:49;;;;;;;13.93;4.30;;;;;;;;;;4961204;28;20109;-82
2022/05/14 00:32:15;;;;;;;15.77;4.40;;;;;;;;;;4995032;28;20039;-82
2022/05/14 00:34:40;;;;;;;12.57;4.57;;;;;;;;;;4977280;28;20129;-82
2022/05/14 00:37:06;;;;;;;16.98;4.55;;;;;;;;;;4995073;28;20445;-83
2022/05/14 00:39:32;;;;;;;10.73;4.53;;;;;;;;;;4994484;28;20080;-82
2022/05/14 00:41:58;;;;;;;11.63;4.18;;;;;;;;;;4994970;28;20053;-82
2022/05/14 00:44:24;;;;;;;14.00;4.35;;;;;;;;;;4977379;28;20397;-82
2022/05/14 00:47:10;;;;;;;14.60;4.07;;;;;;;;;;4977239;28;20050;-82
2022/05/14 00:49:36;;;;;;;13.70;4.25;;;;;;;;;;4994291;28;20038;-82
2022/05/14 00:52:02;;;;;;;14.70;4.53;;;;;;;;;;4977117;28;20202;-82
2022/05/14 00:54:33;;;;;;;10.85;4.70;;;;;;;;;;4977002;28;20041;-82
2022/05/14 00:57:01;;;;;;;17.00;4.70;;;;;;;;;;4977397;28;20080;-82
2022/05/14 00:59:27;;;;;;;12.43;3.92;;;;;;;;;;4976945;28;20053;-82
2022/05/14 01:01:54;;;;;;;13.60;4.35;;;;;;;;;;4977143;28;20173;-83
2022/05/14 01:04:20;;;;;;;13.32;4.35;;;;;;;;;;4977086;28;20497;-83
2022/05/14 01:06:51;;;;;;;14.63;4.40;;;;;;;;;;4976563;28;20042;-83
2022/05/14 01:09:18;;;;;;;14.02;4.65;;;;;;;;;;4976843;28;20508;-82
2022/05/14 01:11:44;;;;;;;11.63;3.97;;;;;;;;;;4976093;28;20047;-82
2022/05/14 01:14:10;;;;;;;11.75;4.22;;;;;;;;;;4976915;28;20110;-82
2022/05/14 01:16:36;;;;;;;11.93;3.90;;;;;;;;;;4976509;28;20518;-82
2022/05/14 01:19:02;;;;;;;13.13;4.13;;;;;;;;;;4976536;28;20042;-82
2022/05/14 01:21:52;;;;;;;16.17;5.18;;;;;;;;;;4976436;28;20049;-83
2022/05/14 01:27:07;;;;;;;15.27;4.65;;;;;;;;;;4993853;28;20043;-82
2022/05/14 01:29:34;;;;;;;17.33;4.63;;;;;;;;;;4976448;28;20092;-82
2022/05/14 01:32:00;;;;;;;15.50;4.70;;;;;;;;;;4976554;28;20049;-82
2022/05/14 01:34:28;;;;;;;15.73;5.25;;;;;;;;;;4994017;28;20038;-82
2022/05/14 01:36:55;;;;;;;16.70;5.25;;;;;;;;;;4976180;28;20046;-82
2022/05/14 01:39:21;;;;;;;20.02;5.78;;;;;;;;;;4993873;28;20068;-82
2022/05/14 01:41:47;;;;;;;15.05;4.90;;;;;;;;;;4976041;28;20052;-82
2022/05/14 01:44:13;;;;;;;13.13;5.43;;;;;;;;;;4993892;28;20042;-82
2022/05/14 01:46:39;;;;;;;15.98;5.35;;;;;;;;;;4976260;28;20125;-82
2022/05/14 01:49:05;;;;;;;14.18;5.90;;;;;;;;;;4976298;28;20046;-82
2022/05/14 01:51:31;;;;;;;14.82;5.57;;;;;;;;;;4976303;28;20478;-82
2022/05/14 01:53:57;;;;;;;16.27;5.85;;;;;;;;;;4976091;28;20070;-82
2022/05/14 01:56:23;;;;;;;17.20;5.75;;;;;;;;;;4975853;28;20085;-82
2022/05/14 01:58:49;;;;;;;22.15;6.32;;;;;;;;;;4975936;28;20086;-82
2022/05/14 02:01:17;;;;;;;19.25;5.63;;;;;;;;;;4975990;28;20076;-82
2022/05/14 02:03:45;;;;;;;15.80;5.72;;;;;;;;;;4976079;28;20077;-82
2022/05/14 02:06:11;;;;;;;18.95;6.60;;;;;;;;;;4975857;28;20085;-82
2022/05/14 02:08:37;;;;;;;20.15;6.80;;;;;;;;;;4976090;28;20046;-82
2022/05/14 02:11:03;;;;;;;19.27;6.68;;;;;;;;;;4993452;28;20053;-82
2022/05/14 02:13:29;;;;;;;19.15;6.38;;;;;;;;;;4993382;28;20043;-82
2022/05/14 02:15:56;;;;;;;22.55;6.95;;;;;;;;;;4975990;28;20043;-82
2022/05/14 02:18:22;;;;;;;17.98;5.97;;;;;;;;;;4975818;28;20049;-82
2022/05/14 02:20:48;;;;;;;17.17;6.03;;;;;;;;;;4975899;28;20046;-82
2022/05/14 02:23:14;;;;;;;20.15;6.85;;;;;;;;;;4975895;28;20121;-82
2022/05/14 02:25:42;;;;;;;20.52;6.78;;;;;;;;;;4997219;28;20471;-82
2022/05/14 02:28:08;;;;;;;15.55;6.50;;;;;;;;;;4979962;28;20473;-82
2022/05/14 02:30:33;;;;;;;21.98;6.70;;;;;;;;;;4997137;28;20084;-82
2022/05/14 02:32:59;;;;;;;20.10;7.00;;;;;;;;;;4979674;28;20073;-82
2022/05/14 02:35:26;;;;;;;17.83;6.90;;;;;;;;;;4979753;28;20057;-82
2022/05/14 02:37:52;;;;;;;17.52;7.25;;;;;;;;;;4979703;28;20126;-82
2022/05/14 02:40:18;;;;;;;24.17;6.97;;;;;;;;;;4996924;28;20459;-82
2022/05/14 02:42:44;;;;;;;22.35;7.70;;;;;;;;;;4979533;28;20087;-83
2022/05/14 02:45:10;;;;;;;19.38;7.30;;;;;;;;;;4979845;28;20132;-82
2022/05/14 02:47:37;;;;;;;19.83;7.78;;;;;;;;;;4979134;28;20046;-82
2022/05/14 02:50:04;;;;;;;21.60;7.40;;;;;;;;;;4979363;28;20049;-83
2022/05/14 02:52:30;;;;;;;22.48;7.05;;;;;;;;;;4996686;28;20123;-82
2022/05/14 02:54:55;;;;;;;22.90;8.73;;;;;;;;;;4979044;28;20498;-82
2022/05/14 02:57:21;;;;;;;24.45;7.97;;;;;;;;;;4979070;28;20057;-82
2022/05/14 02:59:47;;;;;;;20.38;8.00;;;;;;;;;;4996795;28;20131;-82
2022/05/14 03:02:13;;;;;;;23.23;8.32;;;;;;;;;;4996632;28;20409;-82
2022/05/14 03:04:40;;;;;;;21.60;7.70;;;;;;;;;;4979174;28;20053;-82
2022/05/14 03:07:07;;;;;;;29.95;8.48;;;;;;;;;;4995179;28;20133;-81
2022/05/14 03:09:34;;;;;;;22.77;8.85;;;;;;;;;;4978874;28;20042;-82
2022/05/14 03:12:00;;;;;;;25.42;8.93;;;;;;;;;;4978874;28;20069;-82
2022/05/14 03:14:26;;;;;;;24.02;8.07;;;;;;;;;;4979123;28;20387;-82
2022/05/14 03:16:52;;;;;;;25.80;8.52;;;;;;;;;;4978916;28;20046;-82
2022/05/14 03:19:18;;;;;;;22.27;8.25;;;;;;;;;;4978769;28;20046;-82
2022/05/14 03:21:44;;;;;;;24.52;8.35;;;;;;;;;;4978527;28;20130;-82
2022/05/14 03:24:11;;;;;;;29.23;9.90;;;;;;;;;;4978542;28;20054;-82
2022/05/14 03:26:38;;;;;;;20.63;8.63;;;;;;;;;;4978684;28;20053;-82
2022/05/14 03:29:04;;;;;;;22.88;8.30;;;;;;;;;;4962261;28;20045;-83
2022/05/14 03:31:31;;;;;;;28.38;9.23;;;;;;;;;;4978283;28;20043;-83
2022/05/14 03:33:57;;;;;;;27.10;10.23;;;;;;;;;;4994923;28;20046;-82
2022/05/14 03:36:23;;;;;;;21.95;8.15;;;;;;;;;;4994736;28;20035;-82
2022/05/14 03:38:49;;;;;;;25.27;8.90;;;;;;;;;;4978315;28;20049;-83
2022/05/14 03:41:16;;;;;;;24.85;9.10;;;;;;;;;;4978324;28;20054;-83
2022/05/14 03:43:44;;;;;;;29.00;9.73;;;;;;;;;;4995852;28;20560;-82
2022/05/14 03:46:10;;;;;;;24.42;9.25;;;;;;;;;;4978459;28;20042;-82
2022/05/14 03:48:36;;;;;;;32.80;9.57;;;;;;;;;;4978489;28;20049;-83
2022/05/14 03:51:02;;;;;;;23.63;9.65;;;;;;;;;;4978651;28;20394;-83
2022/05/14 03:53:29;;;;;;;25.08;9.82;;;;;;;;;;4978013;28;20054;-83
2022/05/14 03:55:55;;;;;;;25.65;9.18;;;;;;;;;;4978055;28;20058;-83
2022/05/14 03:58:21;;;;;;;29.60;9.45;;;;;;;;;;4977875;28;20052;-82
2022/05/14 04:00:47;;;;;;;24.92;9.35;;;;;;;;;;4978105;28;20081;-83
2022/05/14 04:03:14;;;;;;;28.23;9.85;;;;;;;;;;4977859;28;20042;-83
2022/05/14 04:05:40;;;;;;;30.40;9.95;;;;;;;;;;4977874;28;20077;-83
2022/05/14 04:08:06;;;;;;;31.30;10.55;;;;;;;;;;4961850;28;20038;-83
2022/05/14 04:10:32;;;;;;;25.25;9.70;;;;;;;;;;4994064;28;20105;-82
2022/05/14 04:12:59;;;;;;;26.52;9.80;;;;;;;;;;4977678;28;20621;-83
2022/05/14 04:15:25;;;;;;;31.73;9.68;;;;;;;;;;4994165;28;20089;-83
2022/05/14 04:17:52;;;;;;;29.65;9.77;;;;;;;;;;4995013;28;20038;-83
2022/05/14 04:20:18;;;;;;;27.98;10.13;;;;;;;;;;4977796;28;20046;-82
2022/05/14 04:22:44;;;;;;;25.70;9.55;;;;;;;;;;4993633;28;20129;-82
2022/05/14 04:25:11;;;;;;;30.92;8.68;;;;;;;;;;4977629;28;20133;-84
2022/05/14 04:27:37;;;;;;;28.65;9.95;;;;;;;;;;4977486;28;20038;-83
2022/05/14 04:30:03;;;;;;;26.15;9.27;;;;;;;;;;4977480;28;20168;-82
2022/05/14 04:32:29;;;;;;;28.60;9.50;;;;;;;;;;4961503;28;20214;-84
2022/05/14 04:34:56;;;;;;;27.63;9.38;;;;;;;;;;4977440;28;20373;-83
2022/05/14 04:37:22;;;;;;;30.15;9.43;;;;;;;;;;4977206;28;20057;-83
2022/05/14 04:39:49;;;;;;;21.52;8.50;;;;;;;;;;4961482;28;20049;-83
2022/05/14 04:42:15;;;;;;;26.58;9.63;;;;;;;;;;4977364;28;20073;-83
2022/05/14 04:44:41;;;;;;;25.35;9.48;;;;;;;;;;4994844;28;20034;-83
2022/05/14 04:47:07;;;;;;;28.35;9.65;;;;;;;;;;4976784;28;20089;-83
2022/05/14 04:49:38;;;;;;;24.52;9.95;;;;;;;;;;4976933;28;20117;-83
2022/05/14 04:52:04;;;;;;;25.45;8.85;;;;;;;;;;4977232;28;20704;-83
2022/05/14 04:54:31;;;;;;;32.88;9.30;;;;;;;;;;4961228;28;20390;-83
2022/05/14 04:56:57;;;;;;;24.85;8.50;;;;;;;;;;4977266;28;20056;-83
2022/05/14 04:59:23;;;;;;;21.38;8.95;;;;;;;;;;4977190;28;20478;-83
2022/05/14 05:04:34;;;;;;;24.33;8.38;;;;;;;;;;4976848;28;20054;-83
2022/05/14 05:07:00;;;;;;;26.60;8.93;;;;;;;;;;4976937;28;20049;-83
2022/05/14 05:09:26;;;;;;;24.05;8.75;;;;;;;;;;4976914;28;20092;-83
2022/05/14 05:11:52;;;;;;;26.02;9.00;;;;;;;;;;4977024;28;20122;-83
2022/05/14 05:14:18;;;;;;;22.75;8.75;;;;;;;;;;4976611;28;20125;-83
2022/05/14 05:16:44;;;;;;;28.27;8.68;;;;;;;;;;4994115;28;20045;-83
2022/05/14 05:19:10;;;;;;;28.33;9.70;;;;;;;;;;4993815;28;20073;-83
2022/05/14 05:21:36;;;;;;;28.40;9.05;;;;;;;;;;4976842;28;20049;-83
2022/05/14 05:24:05;;;;;;;25.40;9.65;;;;;;;;;;4976347;28;20490;-83
2022/05/14 05:26:32;;;;;;;23.73;8.60;;;;;;;;;;4960394;28;20046;-83
2022/05/14 05:28:58;;;;;;;26.73;9.55;;;;;;;;;;4976119;28;20053;-84
2022/05/14 05:31:24;;;;;;;29.45;9.13;;;;;;;;;;4960525;28;20046;-83
2022/05/14 05:33:50;;;;;;;30.05;10.05;;;;;;;;;;4993935;28;20133;-83
2022/05/14 05:36:16;;;;;;;30.70;9.60;;;;;;;;;;4993384;28;20073;-83
2022/05/14 05:38:42;;;;;;;24.48;9.73;;;;;;;;;;4976095;28;20042;-83
2022/05/14 05:41:08;;;;;;;29.98;9.40;;;;;;;;;;4976373;28;20049;-83
2022/05/14 05:43:34;;;;;;;26.75;9.52;;;;;;;;;;4976336;28;20354;-82
2022/05/14 05:46:00;;;;;;;26.98;9.65;;;;;;;;;;4960202;28;20050;-83
2022/05/14 05:48:26;;;;;;;28.33;8.85;;;;;;;;;;4976263;28;20053;-82
2022/05/14 05:50:53;;;;;;;32.30;9.20;;;;;;;;;;4969945;28;20058;-83
2022/05/14 05:53:20;;;;;;;26.17;8.85;;;;;;;;;;4954178;28;20102;-82
2022/05/14 05:58:32;;;;;;;27.20;9.18;;;;;;;;;;4933353;29;20052;-83
2022/05/14 06:00:58;;;;;;;25.85;8.85;;;;;;;;;;4948521;29;20123;-82
2022/05/14 06:03:24;;;;;;;28.95;8.70;;;;;;;;;;4945008;29;20438;-83
2022/05/14 06:05:50;;;;;;;30.52;9.35;;;;;;;;;;4947801;29;20043;-83
2022/05/14 06:08:19;;;;;;;26.67;9.07;;;;;;;;;;4934977;29;20501;-87
2022/05/14 06:10:45;;;;;;;28.70;8.95;;;;;;;;;;4948164;29;20047;-84
2022/05/14 06:13:11;;;;;;;31.10;8.30;;;;;;;;;;4935026;29;20050;-83
2022/05/14 06:15:39;;;;;;;24.48;8.90;;;;;;;;;;4952383;29;20050;-85
2022/05/14 06:18:06;;;;;;;30.17;8.48;;;;;;;;;;4936930;29;20043;-81
2022/05/14 06:20:32;;;;;;;28.42;9.15;;;;;;;;;;4953078;29;20215;-83
2022/05/14 06:22:58;;;;;;;27.13;8.20;;;;;;;;;;4936624;29;20049;-82
2022/05/14 06:25:24;;;;;;;26.35;8.43;;;;;;;;;;4947467;29;20125;-82
2022/05/14 06:27:50;;;;;;;33.75;10.00;;;;;;;;;;4944687;29;20044;-81
2022/05/14 06:30:16;;;;;;;26.88;8.10;;;;;;;;;;4953219;29;20050;-81
2022/05/14 06:32:43;;;;;;;26.77;8.40;;;;;;;;;;4950968;29;20391;-82
2022/05/14 06:35:09;;;;;;;26.38;7.35;;;;;;;;;;4934965;29;20044;-82
2022/05/14 06:37:35;;;;;;;24.35;8.02;;;;;;;;;;4934782;29;20044;-82
2022/05/14 06:40:02;;;;;;;25.98;7.13;;;;;;;;;;4951534;29;20054;-82
2022/05/14 06:42:28;;;;;;;27.65;7.38;;;;;;;;;;4952785;29;20471;-82
2022/05/14 06:44:54;;;;;;;22.90;6.80;;;;;;;;;;4938807;29;20075;-82
2022/05/14 06:47:20;;;;;;;28.00;7.43;;;;;;;;;;4945972;29;20074;-82
2022/05/14 06:49:46;;;;;;;24.15;6.97;;;;;;;;;;4948134;29;20047;-82
2022/05/14 06:52:14;;;;;;;34.03;7.18;;;;;;;;;;4935761;28;20525;-81
2022/05/14 06:54:42;;;;;;;26.13;6.38;;;;;;;;;;4943974;29;20554;-82
2022/05/14 06:57:09;;;;;;;26.30;6.45;;;;;;;;;;4954095;28;20058;-82
2022/05/14 06:59:35;;;;;;;23.70;6.93;;;;;;;;;;4920584;29;20046;-81
2022/05/14 07:02:01;;;;;;;26.20;6.35;;;;;;;;;;4952867;29;20122;-82
2022/05/14 07:07:12;;;;;;;23.30;6.40;;;;;;;;;;4953984;29;20051;-81
2022/05/14 07:09:38;;;;;;;21.15;5.75;;;;;;;;;;4952990;28;20082;-82
2022/05/14 07:12:08;;;;;;;22.58;5.90;;;;;;;;;;4923801;29;20462;-82
2022/05/14 07:14:34;;;;;;;22.70;5.97;;;;;;;;;;4953356;29;20046;-83
2022/05/14 07:17:00;;;;;;;25.98;7.00;;;;;;;;;;4956194;29;20047;-82
2022/05/14 07:19:26;;;;;;;24.35;5.75;;;;;;;;;;4955394;28;20415;-82
2022/05/14 07:21:53;;;;;;;24.48;5.70;;;;;;;;;;4956027;28;20130;-82
2022/05/14 07:24:24;;;;;;;19.80;5.50;;;;;;;;;;4955648;29;20055;-82
2022/05/14 07:26:51;;;;;;;23.08;5.78;;;;;;;;;;4955893;29;20043;-82
2022/05/14 07:29:19;;;;;;;22.38;5.85;;;;;;;;;;4956646;28;20043;-82
2022/05/14 07:31:45;;;;;;;24.33;5.43;;;;;;;;;;4944058;28;20051;-81
2022/05/14 07:34:11;;;;;;;17.58;4.30;;;;;;;;;;4951752;29;20043;-82
2022/05/14 07:36:40;;;;;;;22.02;4.38;;;;;;;;;;4955845;28;20084;-81
2022/05/14 07:39:07;;;;;;;18.77;4.20;;;;;;;;;;4955455;29;20051;-82
2022/05/14 07:41:34;;;;;;;21.63;4.65;;;;;;;;;;4955814;28;20436;-83
2022/05/14 07:44:03;;;;;;;23.67;4.38;;;;;;;;;;4936369;29;20494;-82
2022/05/14 07:46:33;;;;;;;19.90;3.97;;;;;;;;;;4963342;28;20074;-82
2022/05/14 07:48:59;;;;;;;18.95;4.47;;;;;;;;;;4936553;29;20435;-82
2022/05/14 07:51:25;;;;;;;18.52;4.20;;;;;;;;;;4949870;28;20050;-81
2022/05/14 07:53:52;;;;;;;21.55;4.15;;;;;;;;;;4956942;29;20047;-82
2022/05/14 07:56:18;;;;;;;20.27;5.50;;;;;;;;;;4939631;29;20138;-81
2022/05/14 07:58:45;;;;;;;17.77;4.80;;;;;;;;;;4955336;29;20047;-82
2022/05/14 08:01:11;;;;;;;17.02;4.22;;;;;;;;;;4971847;28;20054;-82
2022/05/14 08:03:37;;;;;;;19.77;4.63;;;;;;;;;;4955527;29;20172;-83
2022/05/14 08:06:04;;;;;;;17.83;4.45;;;;;;;;;;4955520;29;20051;-83
2022/05/14 08:08:30;;;;;;;19.80;4.63;;;;;;;;;;4955332;29;20391;-82
2022/05/14 08:10:56;;;;;;;15.85;4.15;;;;;;;;;;4955120;29;20457;-83
2022/05/14 08:13:23;;;;;;;23.40;4.32;;;;;;;;;;4956589;28;20098;-82
2022/05/14 08:15:50;;;;;;;18.67;4.65;;;;;;;;;;4955250;28;20032;-82
2022/05/14 08:18:16;;;;;;;23.27;5.30;;;;;;;;;;4955228;29;20075;-82
2022/05/14 08:20:43;;;;;;;17.88;4.38;;;;;;;;;;4955100;29;20055;-82
2022/05/14 08:25:54;;;;;;;18.20;3.90;;;;;;;;;;4956446;29;20043;-83
2022/05/14 08:28:20;;;;;;;23.65;4.32;;;;;;;;;;4955348;29;20796;-82
2022/05/14 08:30:46;;;;;;;18.23;4.30;;;;;;;;;;4954770;28;20074;-82
2022/05/14 08:33:12;;;;;;;23.25;4.63;;;;;;;;;;4955222;29;20078;-82
2022/05/14 08:35:38;;;;;;;21.45;5.32;;;;;;;;;;4954732;28;20043;-82
2022/05/14 08:38:05;;;;;;;18.25;4.70;;;;;;;;;;4955091;29;20054;-83
2022/05/14 08:40:33;;;;;;;24.90;5.07;;;;;;;;;;4956118;29;20078;-82
2022/05/14 08:43:03;;;;;;;19.33;4.65;;;;;;;;;;4955050;29;20126;-82
2022/05/14 08:45:31;;;;;;;18.65;4.45;;;;;;;;;;4954720;29;20091;-82
2022/05/14 08:48:00;;;;;;;20.77;5.07;;;;;;;;;;4954468;29;20043;-83
2022/05/14 08:50:29;;;;;;;20.15;4.93;;;;;;;;;;4955669;29;20039;-82
2022/05/14 08:53:00;;;;;;;16.17;4.63;;;;;;;;;;4953831;29;20146;-82
2022/05/14 08:55:29;;;;;;;26.77;5.25;;;;;;;;;;4954290;28;20047;-83
2022/05/14 08:58:07;;;;;;;18.85;4.97;;;;;;;;;;4954696;29;20047;-83
2022/05/14 09:00:33;;;;;;;22.10;4.85;;;;;;;;;;4970659;28;20403;-83
2022/05/14 09:02:59;;;;;;;18.48;5.07;;;;;;;;;;4954610;29;20047;-83
2022/05/14 09:05:27;;;;;;;18.27;4.18;;;;;;;;;;4951133;28;20049;-83
2022/05/14 09:07:53;;;;;;;22.00;5.20;;;;;;;;;;4954354;29;20541;-83
2022/05/14 09:10:30;;;;;;;20.88;5.15;;;;;;;;;;4955374;29;20043;-82
2022/05/14 09:13:09;;;;;;;16.45;4.40;;;;;;;;;;4954369;29;20047;-83
2022/05/14 09:15:35;;;;;;;24.65;4.80;;;;;;;;;;4953996;28;20039;-83
2022/05/14 09:18:09;;;;;;;18.10;4.70;;;;;;;;;;4955353;28;20043;-83
2022/05/14 09:20:47;;;;;;;17.60;4.90;;;;;;;;;;4953873;28;20047;-83
2022/05/14 09:23:23;;;;;;;21.85;5.28;;;;;;;;;;4954141;29;20043;-83
2022/05/14 09:25:49;;;;;;;19.90;4.55;;;;;;;;;;4954176;29;20451;-83
2022/05/14 09:28:31;;;;;;;21.90;5.43;;;;;;;;;;4953781;29;20131;-84
2022/05/14 09:30:58;;;;;;;18.55;4.55;;;;;;;;;;4954967;28;20042;-83
2022/05/14 09:33:27;;;;;;;17.85;4.45;;;;;;;;;;4953203;28;20051;-84
2022/05/14 09:35:58;;;;;;;20.83;5.32;;;;;;;;;;4954032;29;20039;-83
2022/05/14 09:38:24;;;;;;;20.25;4.55;;;;;;;;;;4955153;29;20460;-83
2022/05/14 09:40:51;;;;;;;19.58;5.60;;;;;;;;;;4954805;29;20398;-83
2022/05/14 09:43:17;;;;;;;21.63;5.10;;;;;;;;;;4953970;28;20069;-83
2022/05/14 09:45:55;;;;;;;18.75;5.03;;;;;;;;;;4953231;29;20482;-83
2022/05/14 09:48:23;;;;;;;23.02;5.05;;;;;;;;;;4953088;29;20035;-84
2022/05/14 09:50:55;;;;;;;20.95;4.35;;;;;;;;;;4953284;29;20094;-84
2022/05/14 09:53:26;;;;;;;18.35;4.40;;;;;;;;;;4954738;29;20043;-84
2022/05/14 09:55:52;;;;;;;18.52;4.70;;;;;;;;;;4962923;28;20059;-84
2022/05/14 09:58:37;;;;;;;16.90;4.25;;;;;;;;;;4953424;29;20090;-84
2022/05/14 10:01:08;;;;;;;19.83;4.45;;;;;;;;;;4952966;29;20054;-83
2022/05/14 10:03:37;;;;;;;18.25;4.38;;;;;;;;;;4953784;29;20055;-85
2022/05/14 10:06:10;;;;;;;15.10;4.38;;;;;;;;;;4954648;29;20039;-83
2022/05/14 10:08:36;;;;;;;22.20;5.43;;;;;;;;;;4953371;29;20063;-84
2022/05/14 10:11:11;;;;;;;20.58;4.32;;;;;;;;;;4937173;29;20055;-83
2022/05/14 10:13:42;;;;;;;18.85;4.57;;;;;;;;;;4953561;29;20179;-84
2022/05/14 10:16:12;;;;;;;16.92;4.75;;;;;;;;;;4954562;29;20087;-84
2022/05/14 10:18:54;;;;;;;17.20;4.32;;;;;;;;;;4953371;29;20047;-84
2022/05/14 10:21:26;;;;;;;15.63;4.93;;;;;;;;;;4953120;29;20054;-84
2022/05/14 10:26:46;;;;;;;22.90;5.50;;;;;;;;;;4954361;28;20407;-85
2022/05/14 10:29:24;;;;;;;23.02;4.65;;;;;;;;;;4954331;28;20073;-84
2022/05/14 10:31:59;;;;;;;18.75;4.57;;;;;;;;;;4937294;29;20494;-85
2022/05/14 10:34:45;;;;;;;20.05;4.82;;;;;;;;;;4952115;28;20450;-84
2022/05/14 10:37:11;;;;;;;17.58;4.68;;;;;;;;;;4950557;29;20443;-84
2022/05/14 10:39:45;;;;;;;21.98;5.13;;;;;;;;;;4953070;29;20102;-84
2022/05/14 10:42:14;;;;;;;19.65;4.50;;;;;;;;;;4952998;29;20043;-85
2022/05/14 10:44:54;;;;;;;20.08;4.70;;;;;;;;;;4953750;28;20051;-85
2022/05/14 10:47:20;;;;;;;20.23;5.35;;;;;;;;;;4956651;29;20043;-84
2022/05/14 10:49:46;;;;;;;23.13;4.65;;;;;;;;;;4957953;29;20132;-84
2022/05/14 10:52:15;;;;;;;24.20;4.90;;;;;;;;;;4956761;29;20648;-84
2022/05/14 10:54:42;;;;;;;18.55;4.43;;;;;;;;;;4940588;29;20047;-85
2022/05/14 10:57:14;;;;;;;13.48;4.07;;;;;;;;;;4956503;29;20047;-84
2022/05/14 10:59:42;;;;;;;24.45;5.18;;;;;;;;;;4956757;29;20122;-84
2022/05/14 11:02:13;;;;;;;20.58;4.50;;;;;;;;;;4957524;29;20122;-85
2022/05/14 11:04:39;;;;;;;22.30;4.63;;;;;;;;;;4957823;29;20039;-83
2022/05/14 11:07:08;;;;;;;17.42;5.25;;;;;;;;;;4956263;29;20039;-84
2022/05/14 11:09:34;;;;;;;21.38;4.63;;;;;;;;;;4957550;28;20078;-84
2022/05/14 11:12:15;;;;;;;23.42;4.90;;;;;;;;;;4956174;29;20113;-84
2022/05/14 11:14:41;;;;;;;16.42;4.57;;;;;;;;;;4956505;28;20039;-84
2022/05/14 11:17:18;;;;;;;22.88;4.93;;;;;;;;;;4956251;29;20387;-84
2022/05/14 11:19:44;;;;;;;16.58;4.63;;;;;;;;;;4957361;29;20044;-85
2022/05/14 11:22:21;;;;;;;19.58;4.65;;;;;;;;;;4957477;29;20050;-84
2022/05/14 11:24:48;;;;;;;18.63;4.55;;;;;;;;;;4956297;29;20101;-84
2022/05/14 11:27:24;;;;;;;19.13;5.07;;;;;;;;;;4957279;28;20463;-84
2022/05/14 11:29:53;;;;;;;20.92;5.13;;;;;;;;;;4956103;29;20051;-85
2022/05/14 11:32:20;;;;;;;19.55;4.57;;;;;;;;;;4956058;28;20557;-85
2022/05/14 11:34:54;;;;;;;16.58;4.85;;;;;;;;;;4956045;29;20051;-84
2022/05/14 11:37:28;;;;;;;14.32;3.97;;;;;;;;;;4955825;29;20048;-85
2022/05/14 11:40:13;;;;;;;21.95;5.18;;;;;;;;;;4955901;29;20514;-85
2022/05/14 11:42:39;;;;;;;20.58;5.25;;;;;;;;;;4955886;28;20058;-84
2022/05/14 11:45:05;;;;;;;19.40;5.13;;;;;;;;;;4955812;28;20047;-85
2022/05/14 11:47:41;;;;;;;16.48;4.70;;;;;;;;;;4955445;29;20561;-85
2022/05/14 11:50:07;;;;;;;24.38;5.03;;;;;;;;;;4955804;29;20051;-85
2022/05/14 11:52:56;;;;;;;22.48;4.55;;;;;;;;;;4955765;29;20043;-85
2022/05/14 11:55:25;;;;;;;22.52;6.13;;;;;;;;;;4945841;28;20118;-84
2022/05/14 11:57:55;;;;;;;20.23;5.18;;;;;;;;;;4954471;28;20054;-86
2022/05/14 12:00:32;;;;;;;29.27;5.75;;;;;;;;;;4957056;28;20054;-85
2022/05/14 12:03:01;;;;;;;19.10;4.70;;;;;;;;;;4956836;28;20039;-85
2022/05/14 12:05:32;;;;;;;18.85;4.75;;;;;;;;;;4955983;29;20039;-84
2022/05/14 12:08:04;;;;;;;20.02;4.35;;;;;;;;;;4955309;29;20491;-84
2022/05/14 12:10:36;;;;;;;18.85;4.53;;;;;;;;;;4957096;29;20039;-84
2022/05/14 12:13:31;;;;;;;20.10;4.63;;;;;;;;;;4939285;29;20106;-84
2022/05/14 12:15:59;;;;;;;16.25;4.47;;;;;;;;;;4904833;28;20056;-86
2022/05/14 12:18:26;;;;;;;17.70;4.80;;;;;;;;;;4955358;29;20464;-85
2022/05/14 12:20:55;;;;;;;21.67;5.05;;;;;;;;;;4955274;28;20571;-88
2022/05/14 12:23:31;;;;;;;17.67;4.57;;;;;;;;;;4955039;28;20078;-88
2022/05/14 12:25:57;;;;;;;20.67;4.93;;;;;;;;;;4939182;29;20106;-86
2022/05/14 12:28:29;;;;;;;17.73;4.22;;;;;;;;;;4955136;28;20058;-87
2022/05/14 12:33:51;;;;;;;19.10;4.80;;;;;;;;;;4954856;28;20043;-86
2022/05/14 12:36:17;;;;;;;20.95;4.03;;;;;;;;;;4938972;29;20043;-87
2022/05/14 12:38:43;;;;;;;18.63;4.47;;;;;;;;;;4938642;29;20126;-87
2022/05/14 12:41:17;;;;;;;21.58;5.03;;;;;;;;;;4954875;29;20129;-87
2022/05/14 12:43:43;;;;;;;16.35;4.18;;;;;;;;;;4954763;29;20122;-87
2022/05/14 12:46:10;;;;;;;17.42;4.45;;;;;;;;;;4954943;28;20210;-86
2022/05/14 12:48:48;;;;;;;15.50;4.10;;;;;;;;;;4954413;29;20043;-87
2022/05/14 12:51:24;;;;;;;18.20;3.95;;;;;;;;;;4954646;28;20039;-87
2022/05/14 12:53:52;;;;;;;18.08;5.18;;;;;;;;;;4954714;29;20395;-87
2022/05/14 12:56:19;;;;;;;16.65;3.92;;;;;;;;;;4954564;28;20231;-86
2022/05/14 12:58:45;;;;;;;18.75;4.47;;;;;;;;;;4953308;28;20380;-87
2022/05/14 13:01:12;;;;;;;20.13;4.70;;;;;;;;;;4954755;29;20055;-86
2022/05/14 13:03:41;;;;;;;19.17;4.35;;;;;;;;;;4955209;29;20054;-87
2022/05/14 13:06:10;;;;;;;18.80;4.75;;;;;;;;;;4954462;28;20083;-87
2022/05/14 13:08:41;;;;;;;18.17;4.65;;;;;;;;;;4954232;28;20515;-86
2022/05/14 13:11:11;;;;;;;19.95;5.05;;;;;;;;;;4954266;29;20479;-86
2022/05/14 13:13:46;;;;;;;18.48;4.70;;;;;;;;;;4938289;29;20047;-87
2022/05/14 13:16:23;;;;;;;22.17;5.27;;;;;;;;;;4954354;29;20092;-87
2022/05/14 13:18:50;;;;;;;19.55;4.63;;;;;;;;;;4936941;29;20366;-87
2022/05/14 13:21:32;;;;;;;19.23;4.97;;;;;;;;;;4954120;29;20077;-85
2022/05/14 13:23:58;;;;;;;17.63;4.43;;;;;;;;;;4937836;29;20130;-89
2022/05/14 13:26:32;;;;;;;18.58;4.30;;;;;;;;;;4938045;29;20078;-85
2022/05/14 13:29:23;;;;;;;20.52;4.82;;;;;;;;;;4953870;29;20135;-86
2022/05/14 13:31:51;;;;;;;16.98;4.28;;;;;;;;;;4953972;29;20043;-87
2022/05/14 13:37:21;;;;;;;56.70;6.60;;;;;;;;;;4953757;29;20047;-86
2022/05/14 13:39:47;;;;;;;34.72;5.57;;;;;;;;;;4953809;28;20069;-86
2022/05/14 13:42:24;;;;;;;18.20;4.40;;;;;;;;;;4953651;28;20049;-86
2022/05/14 13:44:53;;;;;;;22.98;5.13;;;;;;;;;;4937643;29;20043;-86
2022/05/14 13:47:21;;;;;;;22.02;5.13;;;;;;;;;;4937520;29;20042;-85
2022/05/14 13:49:51;;;;;;;17.83;4.40;;;;;;;;;;4937915;29;20047;-87
2022/05/14 13:52:24;;;;;;;19.83;6.13;;;;;;;;;;4953909;29;20215;-86
2022/05/14 13:54:59;;;;;;;26.42;6.38;;;;;;;;;;4954958;28;20498;-86
2022/05/14 13:57:26;;;;;;;19.05;4.97;;;;;;;;;;4953462;29;20047;-87
2022/05/14 14:00:06;;;;;;;18.08;4.50;;;;;;;;;;4953573;29;20229;-87
2022/05/14 14:02:32;;;;;;;19.77;4.32;;;;;;;;;;4953682;29;20051;-87
2022/05/14 14:04:59;;;;;;;22.05;4.65;;;;;;;;;;4953759;28;20098;-87
2022/05/14 14:07:31;;;;;;;21.27;4.93;;;;;;;;;;4953380;28;20126;-87
2022/05/14 14:09:57;;;;;;;23.33;4.80;;;;;;;;;;4953560;28;20039;-87
2022/05/14 14:12:25;;;;;;;23.65;4.85;;;;;;;;;;4953300;29;20043;-86
2022/05/14 14:14:51;;;;;;;18.50;5.00;;;;;;;;;;4937476;29;20051;-86
2022/05/14 14:17:17;;;;;;;16.80;4.40;;;;;;;;;;4953506;28;20094;-86
2022/05/14 14:19:43;;;;;;;19.08;5.13;;;;;;;;;;4954298;28;20372;-85
2022/05/14 14:22:10;;;;;;;21.92;5.20;;;;;;;;;;4957457;28;20055;-85
2022/05/14 14:24:38;;;;;;;20.80;5.13;;;;;;;;;;4941062;29;20141;-85
2022/05/14 14:27:05;;;;;;;19.67;4.90;;;;;;;;;;4957348;28;20141;-86
2022/05/14 14:29:31;;;;;;;18.42;4.68;;;;;;;;;;4956901;29;20039;-85
2022/05/14 14:31:57;;;;;;;18.98;4.32;;;;;;;;;;4957162;29;20054;-85
2022/05/14 14:34:23;;;;;;;21.00;4.90;;;;;;;;;;4956980;28;20035;-86
2022/05/14 14:36:49;;;;;;;19.17;4.00;;;;;;;;;;4957129;28;20402;-85
2022/05/14 14:39:15;;;;;;;18.38;4.75;;;;;;;;;;4956716;28;20502;-85
2022/05/14 14:41:41;;;;;;;20.35;4.97;;;;;;;;;;4957185;29;20050;-86
2022/05/14 14:44:08;;;;;;;16.05;4.65;;;;;;;;;;4956707;29;20046;-85
2022/05/14 14:46:34;;;;;;;17.40;4.90;;;;;;;;;;4956945;28;20035;-85
2022/05/14 14:49:03;;;;;;;18.55;4.78;;;;;;;;;;4956910;29;20474;-86
2022/05/14 14:51:30;;;;;;;21.10;5.10;;;;;;;;;;4958071;28;20051;-86
2022/05/14 14:53:56;;;;;;;20.17;5.43;;;;;;;;;;4956591;29;20058;-85
2022/05/14 14:56:22;;;;;;;20.90;4.82;;;;;;;;;;4956618;28;20093;-86
2022/05/14 14:58:48;;;;;;;18.02;5.13;;;;;;;;;;4940587;29;20047;-85
2022/05/14 15:01:17;;;;;;;19.88;5.20;;;;;;;;;;4957101;28;20186;-86